Time;durP1;ratioP1;P1;durP2;ratioP2;P2;SDS_P1;SDS_P2;PMS_P1;PMS_P2;Temp;Humidity;BMP_temperature;BMP_pressure;BME280_temperature;BME280_humidity;BME280_pressure;Samples;Min_cycle;Max_cycle;Signal;HPM_P1;HPM_P2
2021/06/03 00:01:53;;;;;;;10.73;2.72;;;16.90;76.20;;;;;;5044717;28;20027;-70
2021/06/03 02:20:34;;;;;;;9.27;2.90;;;16.00;77.50;;;;;;5091703;27;20794;-70
2021/06/03 02:23:40;;;;;;;15.57;6.43;;;16.10;77.10;;;;;;5038547;28;20409;-70
2021/06/03 02:26:46;;;;;;;16.05;3.60;;;16.20;76.70;;;;;;5036646;28;20536;-69
2021/06/03 02:29:52;;;;;;;11.27;3.75;;;16.20;76.10;;;;;;5042823;28;20373;-70
2021/06/03 02:32:59;;;;;;;7.97;3.08;;;16.20;75.70;;;;;;5044030;28;20029;-69
2021/06/03 02:36:05;;;;;;;14.00;4.60;;;16.30;75.40;;;;;;5040326;28;20494;-70
2021/06/03 02:39:12;;;;;;;9.38;3.47;;;16.30;75.00;;;;;;5042294;28;20030;-70
2021/06/03 02:42:18;;;;;;;9.10;3.30;;;16.30;74.80;;;;;;5040555;28;20014;-71
2021/06/03 02:45:24;;;;;;;13.93;4.30;;;16.20;74.60;;;;;;5046460;28;20553;-70
2021/06/03 02:48:30;;;;;;;13.48;3.97;;;16.30;74.50;;;;;;5044116;28;20478;-70
2021/06/03 02:51:36;;;;;;;11.95;4.10;;;16.20;74.50;;;;;;5035289;28;20490;-70
2021/06/03 02:54:42;;;;;;;15.60;3.85;;;16.20;74.40;;;;;;5044821;28;20468;-70
2021/06/03 02:57:48;;;;;;;11.73;3.70;;;16.20;74.30;;;;;;5040630;28;20442;-70
2021/06/03 03:00:19;;;;;;;12.90;4.18;;;16.20;74.30;;;;;;5045244;28;20025;-71
2021/06/03 03:02:46;;;;;;;14.10;3.80;;;16.20;74.20;;;;;;5045000;28;20029;-70
2021/06/03 03:05:13;;;;;;;11.43;2.95;;;16.20;74.20;;;;;;5041479;28;20029;-70
2021/06/03 03:07:40;;;;;;;11.65;4.90;;;16.20;74.10;;;;;;5043523;28;20033;-70
2021/06/03 03:10:13;;;;;;;6.63;2.20;;;16.20;74.20;;;;;;5044418;28;20100;-70
2021/06/03 03:12:40;;;;;;;11.85;3.92;;;16.20;74.20;;;;;;5038334;28;20033;-70
2021/06/03 03:15:08;;;;;;;16.40;3.35;;;16.20;74.10;;;;;;5045427;28;20021;-70
2021/06/03 03:17:35;;;;;;;8.98;2.88;;;16.10;74.00;;;;;;5035586;28;20017;-71
2021/06/03 03:20:03;;;;;;;11.68;3.08;;;16.10;74.00;;;;;;5033303;28;20112;-70
2021/06/03 03:22:29;;;;;;;11.38;3.08;;;16.20;73.90;;;;;;5029965;28;20014;-70
2021/06/03 03:24:55;;;;;;;11.88;2.40;;;16.20;73.90;;;;;;5031718;28;20083;-71
2021/06/03 03:27:22;;;;;;;8.40;3.25;;;16.10;73.70;;;;;;5028146;28;20029;-70
2021/06/03 03:29:49;;;;;;;9.15;2.60;;;16.10;73.70;;;;;;5028718;28;20435;-71
2021/06/03 03:32:15;;;;;;;11.13;2.90;;;16.10;73.60;;;;;;5027600;28;20028;-71
2021/06/03 03:34:42;;;;;;;9.10;3.85;;;16.10;73.50;;;;;;5028947;28;20025;-70
2021/06/03 03:37:08;;;;;;;11.93;3.22;;;16.10;73.40;;;;;;5027442;28;20021;-70
2021/06/03 03:39:35;;;;;;;9.20;2.63;;;16.10;73.30;;;;;;5026700;28;20026;-70
2021/06/03 03:42:01;;;;;;;9.32;2.55;;;16.10;73.30;;;;;;5028438;28;20032;-70
2021/06/03 03:44:28;;;;;;;12.55;2.95;;;16.10;73.20;;;;;;5027072;28;20018;-70
2021/06/03 03:46:54;;;;;;;11.63;3.33;;;16.00;73.10;;;;;;5028619;28;20068;-70
2021/06/03 03:49:22;;;;;;;11.35;2.85;;;16.00;73.10;;;;;;5028674;28;20113;-70
2021/06/03 03:51:50;;;;;;;9.98;3.00;;;16.00;73.10;;;;;;5027818;28;20024;-71
2021/06/03 03:54:17;;;;;;;10.82;3.25;;;16.00;73.10;;;;;;5023745;28;20469;-71
2021/06/03 03:56:44;;;;;;;12.20;4.55;;;16.00;73.00;;;;;;5031517;28;20389;-71
2021/06/03 03:59:11;;;;;;;19.60;7.10;;;16.00;72.90;;;;;;5028097;28;20032;-71
2021/06/03 04:01:38;;;;;;;23.77;12.50;;;15.90;72.70;;;;;;5028766;28;20026;-70
2021/06/03 04:04:04;;;;;;;19.13;9.50;;;16.00;72.70;;;;;;5027288;28;20026;-75
2021/06/03 04:06:31;;;;;;;13.07;6.40;;;15.90;72.60;;;;;;5030162;28;20067;-72
2021/06/03 04:08:58;;;;;;;17.70;5.05;;;15.90;72.60;;;;;;5030268;28;20151;-72
2021/06/03 04:11:25;;;;;;;14.00;4.03;;;15.90;72.30;;;;;;5027149;28;20025;-72
2021/06/03 04:13:52;;;;;;;28.02;16.42;;;15.90;72.30;;;;;;5030058;28;20035;-71
2021/06/03 04:16:19;;;;;;;23.92;13.45;;;15.80;71.60;;;;;;5030443;28;20096;-74
2021/06/03 04:18:45;;;;;;;19.50;9.68;;;15.80;71.90;;;;;;5027207;28;20092;-74
2021/06/03 04:21:12;;;;;;;13.75;7.32;;;15.80;72.40;;;;;;5037492;28;20026;-72
2021/06/03 04:23:39;;;;;;;9.65;5.03;;;15.80;72.10;;;;;;5028225;28;20025;-75
2021/06/03 04:26:06;;;;;;;11.20;4.30;;;15.80;72.10;;;;;;5029918;28;20156;-74
2021/06/03 04:28:32;;;;;;;8.95;4.47;;;15.70;72.00;;;;;;5029370;28;20448;-72
2021/06/03 04:30:59;;;;;;;13.70;4.07;;;15.70;72.00;;;;;;5025493;28;20103;-73
2021/06/03 04:34:05;;;;;;;9.68;3.83;;;15.70;71.90;;;;;;5023617;28;20026;-73
2021/06/03 04:37:11;;;;;;;8.10;3.20;;;15.70;71.90;;;;;;5018669;28;20014;-71
2021/06/03 04:40:17;;;;;;;11.02;3.97;;;15.70;71.90;;;;;;5025072;28;20071;-72
2021/06/03 04:43:23;;;;;;;12.10;3.80;;;15.70;71.80;;;;;;5021344;28;20062;-71
2021/06/03 04:45:50;;;;;;;14.35;3.58;;;15.70;71.70;;;;;;5020668;28;20052;-71
2021/06/03 04:48:17;;;;;;;11.00;3.70;;;15.70;71.70;;;;;;5018867;28;20633;-71
2021/06/03 04:50:43;;;;;;;8.98;3.85;;;15.70;71.70;;;;;;5023354;28;20057;-71
2021/06/03 04:53:10;;;;;;;10.98;4.15;;;15.60;71.60;;;;;;5023535;28;20109;-70
2021/06/03 04:56:16;;;;;;;15.40;4.00;;;15.60;71.60;;;;;;5023583;28;20109;-70
2021/06/03 04:59:22;;;;;;;9.65;4.18;;;15.60;71.60;;;;;;5021995;28;20075;-70
2021/06/03 05:01:49;;;;;;;11.73;3.92;;;15.60;71.50;;;;;;5021667;28;20481;-71
2021/06/03 05:04:16;;;;;;;12.55;4.40;;;15.50;71.40;;;;;;5028456;28;20101;-71
2021/06/03 05:06:43;;;;;;;6.20;3.03;;;15.60;71.40;;;;;;5019989;28;20546;-71
2021/06/03 05:09:09;;;;;;;10.30;4.32;;;15.60;71.40;;;;;;5021092;28;20029;-71
2021/06/03 05:11:36;;;;;;;9.18;4.05;;;15.50;71.40;;;;;;5019190;28;20029;-71
2021/06/03 05:14:02;;;;;;;9.73;3.22;;;15.60;71.40;;;;;;5023863;28;20033;-71
2021/06/03 05:16:29;;;;;;;10.02;3.97;;;15.50;71.30;;;;;;5021125;28;20373;-71
2021/06/03 05:18:55;;;;;;;10.25;3.45;;;15.50;71.30;;;;;;5021175;28;20042;-71
2021/06/03 05:21:21;;;;;;;9.30;3.83;;;15.50;71.20;;;;;;5017174;28;20423;-70
2021/06/03 05:23:48;;;;;;;11.63;4.57;;;15.50;71.20;;;;;;5020988;28;20481;-70
2021/06/03 05:26:14;;;;;;;8.85;4.15;;;15.50;71.20;;;;;;5020538;28;20022;-70
2021/06/03 05:29:20;;;;;;;10.55;3.45;;;15.50;71.10;;;;;;5018859;28;20096;-71
2021/06/03 05:32:26;;;;;;;12.77;3.55;;;15.40;71.00;;;;;;5020224;28;20100;-71
2021/06/03 05:34:53;;;;;;;8.45;3.72;;;15.40;70.90;;;;;;5016806;28;20067;-70
2021/06/03 05:37:19;;;;;;;14.85;4.43;;;15.40;70.90;;;;;;5021550;28;20036;-70
2021/06/03 05:39:46;;;;;;;17.20;4.75;;;15.40;70.90;;;;;;5024157;28;20013;-70
2021/06/03 05:42:13;;;;;;;14.00;4.88;;;15.40;70.90;;;;;;5025707;28;20032;-70
2021/06/03 05:44:39;;;;;;;10.85;4.85;;;15.40;71.00;;;;;;5026057;28;20032;-70
2021/06/03 05:47:06;;;;;;;6.07;3.55;;;15.40;71.00;;;;;;5028379;28;20044;-71
2021/06/03 05:49:32;;;;;;;11.30;4.45;;;15.40;71.00;;;;;;5025278;28;20029;-71
2021/06/03 05:52:02;;;;;;;12.02;4.88;;;15.40;71.00;;;;;;5030407;28;20028;-71
2021/06/03 05:54:29;;;;;;;10.82;4.75;;;15.30;71.00;;;;;;5028635;28;20029;-71
2021/06/03 05:56:56;;;;;;;10.90;4.57;;;15.40;71.00;;;;;;5025007;28;20017;-71
2021/06/03 05:59:23;;;;;;;8.50;4.10;;;15.30;71.00;;;;;;5026550;28;20483;-71
2021/06/03 06:01:50;;;;;;;12.95;5.47;;;15.30;70.90;;;;;;5020527;28;20570;-71
2021/06/03 06:06:43;;;;;;;16.17;5.10;;;15.30;71.00;;;;;;5023073;28;20041;-71
2021/06/03 06:09:14;;;;;;;9.43;3.60;;;15.30;71.00;;;;;;5028808;28;20018;-71
2021/06/03 06:11:42;;;;;;;10.00;4.18;;;15.30;70.90;;;;;;5023073;28;20026;-71
2021/06/03 06:14:09;;;;;;;11.93;5.20;;;15.30;71.00;;;;;;5027464;28;20097;-71
2021/06/03 06:16:37;;;;;;;15.15;4.70;;;15.30;71.10;;;;;;5026668;28;20064;-71
2021/06/03 06:19:08;;;;;;;11.48;4.78;;;15.20;71.00;;;;;;5027605;28;20091;-71
2021/06/03 06:21:36;;;;;;;14.18;3.70;;;15.20;71.00;;;;;;5026782;28;20026;-71
2021/06/03 06:24:04;;;;;;;9.93;3.58;;;15.20;71.10;;;;;;5020563;28;20041;-70
2021/06/03 06:26:33;;;;;;;10.50;4.43;;;15.20;71.10;;;;;;5024658;28;20020;-71
2021/06/03 06:28:59;;;;;;;11.55;4.13;;;15.20;71.10;;;;;;5027344;28;20029;-71
2021/06/03 06:31:26;;;;;;;9.07;4.00;;;15.20;71.20;;;;;;5025921;28;20018;-71
2021/06/03 06:33:53;;;;;;;11.88;3.70;;;15.20;71.30;;;;;;5029212;28;20028;-71
2021/06/03 06:36:19;;;;;;;12.23;3.72;;;15.20;71.40;;;;;;5024872;28;20551;-71
2021/06/03 06:38:46;;;;;;;13.95;4.53;;;15.20;71.50;;;;;;5026175;28;20087;-71
2021/06/03 06:41:12;;;;;;;16.42;4.88;;;15.20;71.60;;;;;;5024871;28;20095;-70
2021/06/03 06:43:39;;;;;;;13.73;3.33;;;15.20;71.60;;;;;;5025253;28;20073;-71
2021/06/03 06:46:06;;;;;;;12.80;5.00;;;15.20;71.70;;;;;;5029160;28;20064;-71
2021/06/03 06:48:33;;;;;;;10.98;4.13;;;15.20;71.90;;;;;;5028536;28;20021;-71
2021/06/03 06:51:00;;;;;;;13.35;3.88;;;15.20;72.00;;;;;;5024028;28;20075;-71
2021/06/03 06:53:27;;;;;;;16.85;3.83;;;15.20;72.30;;;;;;5027357;28;20554;-71
2021/06/03 06:55:54;;;;;;;15.35;4.05;;;15.20;72.40;;;;;;5033481;28;20039;-71
2021/06/03 06:58:21;;;;;;;13.25;3.80;;;15.20;72.60;;;;;;5030156;28;20028;-71
2021/06/03 07:00:49;;;;;;;13.18;4.30;;;15.20;72.80;;;;;;5028836;28;20109;-71
2021/06/03 07:03:16;;;;;;;18.10;3.55;;;15.20;73.10;;;;;;5028491;28;20388;-71
2021/06/03 07:05:46;;;;;;;13.55;3.67;;;15.20;73.10;;;;;;5031440;28;20155;-70
2021/06/03 07:08:13;;;;;;;15.50;4.50;;;15.20;73.40;;;;;;5024324;28;20073;-71
2021/06/03 07:10:40;;;;;;;14.55;4.00;;;15.30;73.70;;;;;;5030699;28;20063;-71
2021/06/03 07:13:06;;;;;;;18.05;4.25;;;15.30;73.80;;;;;;5028398;28;20080;-71
2021/06/03 07:15:33;;;;;;;13.32;4.72;;;15.30;74.00;;;;;;5030063;28;20036;-71
2021/06/03 07:17:59;;;;;;;10.60;3.22;;;15.30;74.20;;;;;;5031353;28;20136;-70
2021/06/03 07:20:26;;;;;;;12.45;3.55;;;15.30;74.40;;;;;;5031074;28;20076;-71
2021/06/03 07:23:00;;;;;;;13.38;4.10;;;15.30;74.50;;;;;;5029401;28;20116;-71
2021/06/03 07:25:26;;;;;;;16.63;4.63;;;15.40;74.60;;;;;;5024515;28;20117;-71
2021/06/03 07:27:53;;;;;;;12.50;3.08;;;15.40;74.80;;;;;;5031550;28;20040;-71
2021/06/03 07:30:22;;;;;;;11.05;3.88;;;15.40;74.90;;;;;;5032663;28;20030;-71
2021/06/03 07:32:49;;;;;;;8.02;3.75;;;15.40;75.10;;;;;;5029583;28;20022;-71
2021/06/03 07:35:17;;;;;;;7.53;3.40;;;15.50;75.30;;;;;;5032003;28;20029;-71
2021/06/03 07:37:45;;;;;;;14.05;3.90;;;15.50;75.40;;;;;;5028478;28;22098;-70
2021/06/03 07:40:15;;;;;;;18.38;4.82;;;15.50;75.50;;;;;;5031664;28;20028;-71
2021/06/03 07:42:42;;;;;;;9.60;3.97;;;15.50;75.70;;;;;;5031764;28;20018;-71
2021/06/03 07:45:11;;;;;;;14.15;3.65;;;15.60;75.70;;;;;;5030586;28;20024;-71
2021/06/03 07:47:41;;;;;;;8.65;3.20;;;15.60;75.70;;;;;;5029585;28;20482;-71
2021/06/03 07:50:10;;;;;;;15.00;3.53;;;15.70;76.40;;;;;;5027304;28;20028;-71
2021/06/03 07:52:37;;;;;;;13.63;3.92;;;15.70;75.80;;;;;;5028136;28;20022;-71
2021/06/03 07:55:06;;;;;;;8.30;3.60;;;15.80;76.00;;;;;;5026080;28;20015;-71
2021/06/03 07:57:33;;;;;;;12.18;3.92;;;15.80;76.10;;;;;;5021882;28;20393;-71
2021/06/03 07:59:59;;;;;;;17.20;3.72;;;15.80;76.20;;;;;;5028219;28;20017;-71
2021/06/03 08:02:26;;;;;;;14.10;3.17;;;15.90;76.30;;;;;;5031017;28;20018;-71
2021/06/03 10:28:15;;;;;;;13.00;2.88;;;17.50;67.50;;;;;;5118990;27;20490;-71
2021/06/03 10:30:53;;;;;;;12.85;3.05;;;18.20;66.40;;;;;;5102297;28;20027;-72
2021/06/03 10:33:26;;;;;;;7.97;3.22;;;18.20;66.00;;;;;;5102933;28;20020;-71
2021/06/03 10:35:55;;;;;;;7.32;2.55;;;18.30;64.40;;;;;;5111402;28;20515;-71
2021/06/03 10:38:23;;;;;;;7.05;2.33;;;18.40;63.70;;;;;;5106453;27;20504;-71
2021/06/03 10:40:58;;;;;;;11.52;2.45;;;18.50;63.50;;;;;;5111076;28;20016;-71
2021/06/03 10:43:27;;;;;;;9.45;3.33;;;18.50;63.70;;;;;;5106458;28;20393;-71
2021/06/03 10:45:54;;;;;;;8.85;3.05;;;18.60;63.20;;;;;;5112902;28;20020;-71
2021/06/03 10:48:20;;;;;;;12.38;3.13;;;18.70;62.80;;;;;;5112302;27;20028;-71
2021/06/03 10:50:50;;;;;;;7.97;2.65;;;18.80;63.10;;;;;;5107441;28;20640;-72
2021/06/03 10:53:19;;;;;;;7.78;3.28;;;18.80;63.20;;;;;;5106454;28;20032;-72
2021/06/03 10:55:50;;;;;;;13.38;3.45;;;18.90;63.10;;;;;;5105415;28;20478;-72
2021/06/03 10:58:17;;;;;;;11.70;2.97;;;19.00;63.10;;;;;;5112101;28;20034;-71
2021/06/03 11:01:02;;;;;;;9.20;3.13;;;19.00;63.20;;;;;;5108865;28;20389;-71
2021/06/03 11:03:47;;;;;;;10.18;3.58;;;19.10;62.80;;;;;;5107515;27;20050;-72
2021/06/03 11:06:19;;;;;;;9.77;2.53;;;19.10;62.10;;;;;;5111459;28;20060;-71
2021/06/03 11:09:01;;;;;;;6.45;2.13;;;19.20;61.70;;;;;;5107020;27;20059;-71
2021/06/03 11:11:30;;;;;;;13.05;3.25;;;19.20;61.80;;;;;;5096166;28;20111;-71
2021/06/03 11:14:13;;;;;;;10.88;3.85;;;19.30;61.70;;;;;;5107563;28;20038;-71
2021/06/03 11:16:39;;;;;;;11.55;4.30;;;19.30;61.50;;;;;;5102104;28;20482;-72
2021/06/03 11:19:08;;;;;;;7.88;2.83;;;19.40;61.40;;;;;;5111445;27;20097;-71
2021/06/03 11:21:36;;;;;;;9.95;3.35;;;19.40;61.60;;;;;;5107135;28;20028;-72
2021/06/03 11:24:04;;;;;;;12.23;2.80;;;19.50;61.30;;;;;;5108137;27;20466;-71
2021/06/03 11:26:52;;;;;;;8.40;2.97;;;19.50;61.40;;;;;;5103176;28;20402;-72
2021/06/03 11:29:26;;;;;;;15.70;2.90;;;19.60;61.10;;;;;;5089847;28;20063;-71
2021/06/03 11:32:05;;;;;;;8.35;3.10;;;19.60;60.70;;;;;;5097335;28;20497;-71
2021/06/03 11:34:50;;;;;;;7.60;2.78;;;19.70;60.80;;;;;;5082645;28;20416;-72
2021/06/03 11:37:35;;;;;;;8.90;3.55;;;19.70;60.50;;;;;;5091552;28;20043;-72
2021/06/03 11:40:08;;;;;;;14.10;3.87;;;19.80;60.80;;;;;;5092083;28;20031;-72
2021/06/03 11:42:38;;;;;;;9.65;4.20;;;19.80;60.70;;;;;;5097886;28;20689;-71
2021/06/03 11:45:41;;;;;;;7.30;3.15;;;19.80;60.80;;;;;;5104952;28;20021;-71
2021/06/03 11:48:16;;;;;;;9.85;3.83;;;19.90;61.00;;;;;;5094151;28;20035;-72
2021/06/03 11:50:45;;;;;;;10.82;3.00;;;19.90;60.40;;;;;;5096177;28;20012;-71
2021/06/03 11:53:14;;;;;;;11.52;3.22;;;19.90;60.70;;;;;;5094716;28;20055;-71
2021/06/03 11:55:51;;;;;;;16.40;4.40;;;20.00;60.60;;;;;;5095316;28;20024;-72
2021/06/03 11:58:22;;;;;;;12.35;2.97;;;20.00;60.60;;;;;;5090448;28;20046;-72
2021/06/03 12:00:53;;;;;;;9.55;3.03;;;20.00;60.40;;;;;;5088936;28;20529;-71
2021/06/03 12:03:25;;;;;;;9.07;2.80;;;20.00;60.20;;;;;;5093098;28;20012;-72
2021/06/03 12:05:55;;;;;;;17.80;3.25;;;20.10;60.10;;;;;;5091457;28;20379;-72
2021/06/03 12:08:42;;;;;;;16.33;3.35;;;20.10;60.00;;;;;;5098482;28;20007;-71
2021/06/03 12:11:15;;;;;;;8.75;2.65;;;20.20;59.90;;;;;;5082946;28;20024;-72
2021/06/03 12:13:43;;;;;;;13.82;3.03;;;20.20;59.80;;;;;;5092602;28;20015;-71
2021/06/03 12:16:10;;;;;;;9.90;2.63;;;20.20;59.40;;;;;;5093085;28;20124;-71
2021/06/03 12:18:45;;;;;;;8.70;2.63;;;20.20;59.20;;;;;;5093163;28;20024;-72
2021/06/03 12:21:13;;;;;;;10.52;3.30;;;20.30;59.20;;;;;;5097485;28;20038;-71
2021/06/03 12:23:58;;;;;;;10.48;2.90;;;20.30;58.90;;;;;;5093304;28;20022;-71
2021/06/03 12:26:25;;;;;;;10.00;3.83;;;20.30;58.70;;;;;;5091803;28;20047;-71
2021/06/03 12:28:52;;;;;;;8.50;2.80;;;20.40;58.70;;;;;;5091343;28;20016;-71
2021/06/03 12:31:24;;;;;;;9.13;3.47;;;20.40;58.60;;;;;;5097075;28;20019;-72
2021/06/03 12:33:51;;;;;;;11.10;3.50;;;20.40;58.50;;;;;;5085093;28;20505;-71
2021/06/03 12:36:18;;;;;;;13.10;3.00;;;20.40;58.10;;;;;;5098040;27;20039;-72
2021/06/03 12:38:49;;;;;;;11.80;3.80;;;20.50;58.00;;;;;;5089799;28;20028;-72
2021/06/03 12:41:30;;;;;;;10.20;2.63;;;20.50;58.10;;;;;;5093452;28;20098;-71
2021/06/03 12:44:09;;;;;;;10.35;3.47;;;20.50;57.70;;;;;;5092827;28;20024;-71
2021/06/03 12:46:44;;;;;;;8.95;3.47;;;20.50;57.50;;;;;;5088571;28;20035;-72
2021/06/03 12:49:17;;;;;;;12.85;2.88;;;20.50;57.20;;;;;;5096505;28;20047;-71
2021/06/03 12:51:57;;;;;;;12.00;3.45;;;20.60;57.20;;;;;;5089486;28;20012;-71
2021/06/03 12:54:33;;;;;;;9.75;2.90;;;20.60;56.90;;;;;;5087430;28;20414;-72
2021/06/03 12:57:03;;;;;;;10.63;2.88;;;20.60;57.10;;;;;;5089051;28;20043;-71
2021/06/03 12:59:32;;;;;;;10.18;3.15;;;20.60;57.10;;;;;;5092365;28;20026;-71
2021/06/03 13:02:01;;;;;;;9.32;2.70;;;20.70;57.00;;;;;;5093535;28;20111;-71
2021/06/03 13:04:34;;;;;;;15.57;4.55;;;20.70;56.60;;;;;;5090769;28;20520;-72
2021/06/03 13:07:01;;;;;;;7.20;2.75;;;20.70;56.40;;;;;;5095945;28;20039;-71
2021/06/03 13:09:28;;;;;;;9.40;3.05;;;20.70;55.80;;;;;;5091545;28;20127;-72
2021/06/03 13:12:03;;;;;;;8.45;2.90;;;20.70;55.80;;;;;;5095705;28;20514;-71
2021/06/03 13:14:43;;;;;;;7.45;3.20;;;20.80;55.80;;;;;;5089097;28;20031;-72
2021/06/03 13:17:23;;;;;;;10.77;3.40;;;20.80;55.70;;;;;;5089488;28;20039;-71
2021/06/03 13:19:51;;;;;;;11.95;3.55;;;20.80;55.60;;;;;;5091156;28;20387;-72
2021/06/03 13:22:24;;;;;;;8.93;4.18;;;20.80;55.50;;;;;;5089115;28;20024;-71
2021/06/03 13:24:52;;;;;;;9.45;3.22;;;20.80;55.50;;;;;;5088252;28;20103;-71
2021/06/03 13:27:32;;;;;;;10.68;3.30;;;20.80;55.50;;;;;;5090149;28;20407;-71
2021/06/03 13:30:11;;;;;;;12.48;3.80;;;20.80;55.70;;;;;;5092605;28;20035;-71
2021/06/03 13:32:38;;;;;;;10.38;3.80;;;20.80;55.80;;;;;;5091224;28;20023;-72
2021/06/03 13:35:11;;;;;;;17.88;4.45;;;20.80;56.00;;;;;;5094062;28;20051;-71
2021/06/03 13:37:43;;;;;;;10.60;3.95;;;20.80;56.00;;;;;;5090079;28;20035;-72
2021/06/03 13:40:11;;;;;;;16.50;4.38;;;20.80;56.10;;;;;;5088708;28;20590;-71
2021/06/03 13:42:40;;;;;;;11.05;3.35;;;20.80;56.10;;;;;;5088393;28;20024;-71
2021/06/03 13:45:12;;;;;;;9.52;3.38;;;20.80;56.20;;;;;;5090837;28;20393;-71
2021/06/03 13:47:40;;;;;;;12.18;3.45;;;20.80;56.30;;;;;;5090523;28;20486;-71
2021/06/03 13:50:15;;;;;;;13.70;4.80;;;20.80;56.40;;;;;;5095025;28;20017;-71
2021/06/03 13:52:59;;;;;;;8.82;3.45;;;20.80;56.60;;;;;;5085334;28;20111;-71
2021/06/03 13:55:31;;;;;;;18.85;4.72;;;20.80;56.80;;;;;;5087554;28;20407;-71
2021/06/03 13:57:59;;;;;;;11.77;3.70;;;20.80;57.10;;;;;;5091919;28;20020;-71
2021/06/03 14:00:35;;;;;;;13.65;5.45;;;20.80;57.40;;;;;;5090175;28;20020;-72
2021/06/03 14:03:15;;;;;;;10.95;3.70;;;20.80;57.60;;;;;;5094686;28;20612;-71
2021/06/03 14:06:21;;;;;;;11.70;3.88;;;20.70;57.70;;;;;;5086975;28;20012;-72
2021/06/03 14:09:07;;;;;;;;;;;20.70;57.80;;;;;;5093344;28;20058;-72
2021/06/03 14:11:48;;;;;;;23.10;3.60;;;20.70;57.70;;;;;;5086137;28;19911;-72
2021/06/03 14:14:25;;;;;;;12.27;3.28;;;20.60;57.60;;;;;;5093363;28;20077;-71
2021/06/03 14:17:10;;;;;;;9.23;3.80;;;20.60;57.80;;;;;;5095343;28;20166;-71
2021/06/03 14:19:49;;;;;;;16.40;3.40;;;20.50;57.70;;;;;;5093667;28;20023;-71
2021/06/03 14:22:35;;;;;;;11.05;3.17;;;20.50;57.80;;;;;;5092002;28;20056;-72
2021/06/03 14:25:06;;;;;;;9.65;2.95;;;20.50;57.90;;;;;;5090606;28;20564;-72
2021/06/03 14:27:40;;;;;;;13.07;3.63;;;20.40;57.90;;;;;;5089177;28;20044;-71
2021/06/03 14:30:10;;;;;;;11.80;3.38;;;20.40;58.00;;;;;;5090440;28;20107;-71
2021/06/03 14:32:48;;;;;;;9.43;3.63;;;20.40;58.30;;;;;;5086552;28;20371;-71
2021/06/03 14:35:30;;;;;;;10.43;3.20;;;20.30;58.30;;;;;;5094511;28;20391;-71
2021/06/03 14:38:00;;;;;;;7.50;3.25;;;20.30;58.30;;;;;;5083327;28;20082;-71
2021/06/03 14:40:33;;;;;;;17.52;3.78;;;20.20;58.40;;;;;;5084721;28;20077;-71
2021/06/03 14:43:11;;;;;;;16.73;3.50;;;20.20;58.60;;;;;;5095707;28;20321;-71
2021/06/03 14:45:39;;;;;;;10.25;3.67;;;20.10;58.80;;;;;;5092652;28;20572;-72
2021/06/03 14:48:09;;;;;;;10.00;3.13;;;20.10;59.00;;;;;;5087144;28;20546;-71
2021/06/03 14:50:38;;;;;;;11.38;3.55;;;20.10;59.10;;;;;;5089136;28;20643;-70
2021/06/03 14:53:06;;;;;;;14.05;3.17;;;20.00;59.00;;;;;;5084878;28;20016;-75
2021/06/03 14:55:36;;;;;;;7.57;3.25;;;20.00;59.10;;;;;;5087805;28;20405;-77
2021/06/03 14:58:04;;;;;;;11.23;3.05;;;20.00;59.90;;;;;;5092166;28;20031;-73
2021/06/03 15:00:50;;;;;;;10.07;3.10;;;19.90;60.00;;;;;;5083863;28;20017;-73
2021/06/03 15:03:19;;;;;;;230.35;25.23;;;19.90;60.00;;;;;;5085559;28;20124;-75
2021/06/03 15:05:46;;;;;;;106.85;11.55;;;19.80;60.90;;;;;;5089232;28;20062;-74
2021/06/03 15:08:14;;;;;;;47.55;6.35;;;19.80;60.30;;;;;;5099649;28;20015;-73
2021/06/03 15:10:45;;;;;;;34.20;7.00;;;19.70;60.30;;;;;;5091136;28;20016;-72
2021/06/03 15:13:16;;;;;;;26.98;5.85;;;19.70;60.60;;;;;;5098044;28;20035;-70
2021/06/03 15:15:44;;;;;;;19.13;4.32;;;19.70;60.70;;;;;;5096544;28;20151;-72
2021/06/03 15:18:11;;;;;;;17.08;4.15;;;19.70;60.80;;;;;;5095608;28;20336;-75
2021/06/03 15:20:41;;;;;;;21.85;6.63;;;19.60;60.80;;;;;;5093089;28;20351;-75
2021/06/03 15:23:14;;;;;;;18.90;4.18;;;19.60;61.70;;;;;;5087273;28;20115;-74
2021/06/03 15:25:40;;;;;;;25.10;6.65;;;19.60;61.30;;;;;;5097613;28;20067;-70
2021/06/03 15:28:08;;;;;;;18.27;4.82;;;19.60;61.70;;;;;;5093535;28;20051;-72
2021/06/03 15:30:39;;;;;;;14.00;4.35;;;19.50;61.90;;;;;;5100141;28;20028;-72
2021/06/03 15:33:09;;;;;;;11.10;4.35;;;19.50;62.20;;;;;;5094135;28;20051;-73
2021/06/03 15:35:39;;;;;;;16.35;3.97;;;19.40;62.30;;;;;;5092182;28;20034;-76
2021/06/03 15:38:08;;;;;;;13.27;3.75;;;19.40;62.60;;;;;;5091217;28;20031;-71
2021/06/03 15:40:38;;;;;;;18.15;3.90;;;19.30;63.00;;;;;;5089895;28;20065;-74
2021/06/03 15:43:05;;;;;;;12.60;3.58;;;19.30;63.30;;;;;;5080346;28;20084;-68
2021/06/03 15:45:32;;;;;;;15.98;5.88;;;19.20;63.60;;;;;;5079289;28;20016;-69
2021/06/03 15:48:00;;;;;;;19.50;6.55;;;19.20;64.00;;;;;;5077102;28;20025;-73
2021/06/03 15:51:06;;;;;;;12.38;7.57;;;19.10;64.90;;;;;;5081723;28;20063;-72
2021/06/03 15:53:36;;;;;;;17.80;7.35;;;19.10;64.50;;;;;;5077254;28;20028;-76
2021/06/03 15:56:44;;;;;;;17.70;8.40;;;19.00;64.80;;;;;;5079811;28;20486;-74
2021/06/03 15:59:51;;;;;;;22.08;9.68;;;19.00;64.90;;;;;;5080945;28;20525;-71
2021/06/03 16:02:17;;;;;;;14.32;7.18;;;18.90;65.20;;;;;;5077100;28;20074;-76
2021/06/03 16:04:44;;;;;;;18.75;8.13;;;18.90;65.50;;;;;;5085219;28;20443;-75
2021/06/03 16:07:11;;;;;;;19.77;7.55;;;18.80;65.60;;;;;;5084932;28;20024;-76
2021/06/03 16:09:38;;;;;;;27.23;7.82;;;18.80;65.80;;;;;;5088155;28;20028;-76
2021/06/03 16:12:05;;;;;;;18.52;6.63;;;18.70;66.00;;;;;;5085911;28;20063;-71
2021/06/03 16:14:32;;;;;;;24.13;10.20;;;18.70;66.10;;;;;;5091829;28;20024;-74
2021/06/03 16:16:59;;;;;;;15.40;7.75;;;18.70;66.20;;;;;;5089122;28;20149;-70
2021/06/03 16:19:26;;;;;;;18.23;6.63;;;18.70;66.40;;;;;;5087303;28;20059;-70
2021/06/03 16:21:52;;;;;;;19.38;7.55;;;18.60;66.50;;;;;;5094564;28;20099;-73
2021/06/03 16:24:20;;;;;;;24.20;10.60;;;18.60;66.70;;;;;;5085312;28;20059;-76
2021/06/03 16:26:46;;;;;;;22.38;12.20;;;18.60;66.80;;;;;;5090709;28;20048;-77
2021/06/03 16:29:13;;;;;;;26.48;12.52;;;18.50;66.90;;;;;;5093680;28;20497;-71
2021/06/03 16:31:41;;;;;;;23.17;11.48;;;18.50;67.10;;;;;;5092224;28;20036;-76
2021/06/03 16:34:08;;;;;;;28.80;14.13;;;18.50;67.10;;;;;;5087103;28;20049;-78
2021/06/03 16:36:35;;;;;;;20.30;10.43;;;18.40;67.20;;;;;;5081877;28;20032;-77
2021/06/03 16:39:02;;;;;;;28.08;12.15;;;18.40;67.30;;;;;;5092191;28;20020;-83
2021/06/03 16:41:29;;;;;;;22.70;12.25;;;18.40;67.30;;;;;;5088415;28;20379;-72
2021/06/03 16:44:02;;;;;;;23.75;11.55;;;18.40;67.40;;;;;;5090734;28;20351;-74
2021/06/03 16:46:30;;;;;;;22.35;10.75;;;18.30;67.50;;;;;;5093639;28;20039;-74
2021/06/03 16:48:56;;;;;;;22.08;9.18;;;18.30;67.70;;;;;;5093501;28;20245;-75
2021/06/03 16:51:23;;;;;;;22.50;10.80;;;18.30;67.80;;;;;;5092307;28;20031;-79
2021/06/03 16:53:50;;;;;;;17.75;9.10;;;18.30;67.90;;;;;;5092554;28;20173;-73
2021/06/03 16:56:18;;;;;;;16.48;9.98;;;18.20;68.00;;;;;;5091975;28;20487;-76
2021/06/03 16:58:44;;;;;;;23.33;9.68;;;18.20;68.10;;;;;;5090312;28;20032;-69
2021/06/03 17:01:14;;;;;;;19.67;9.80;;;18.20;68.10;;;;;;5094363;28;20059;-72
2021/06/03 17:03:42;;;;;;;41.00;24.60;;;18.10;68.10;;;;;;5092983;28;20389;-78
2021/06/03 17:06:11;;;;;;;38.17;20.85;;;18.10;68.20;;;;;;5088218;28;20486;-75
2021/06/03 17:08:38;;;;;;;30.23;18.35;;;18.10;68.30;;;;;;5086706;28;20020;-76
2021/06/03 17:11:07;;;;;;;31.33;18.30;;;18.10;68.40;;;;;;5093709;28;20031;-74
2021/06/03 17:13:36;;;;;;;26.25;15.98;;;18.00;68.50;;;;;;5091575;28;20157;-76
2021/06/03 17:16:04;;;;;;;25.75;15.18;;;18.00;68.70;;;;;;5088455;28;20075;-76
2021/06/03 17:18:32;;;;;;;25.15;15.13;;;18.00;68.80;;;;;;5090728;28;20449;-72
2021/06/03 17:21:00;;;;;;;26.85;13.90;;;17.90;68.90;;;;;;5091517;28;20032;-75
2021/06/03 17:23:32;;;;;;;17.65;11.25;;;17.90;69.10;;;;;;5092426;28;20036;-73
2021/06/03 17:26:01;;;;;;;21.67;11.45;;;17.90;69.10;;;;;;5088384;28;20032;-71
2021/06/03 17:28:28;;;;;;;30.77;11.68;;;17.90;69.20;;;;;;5089733;28;20419;-74
2021/06/03 17:31:04;;;;;;;24.95;12.00;;;17.90;69.20;;;;;;5090123;28;20032;-76
2021/06/03 17:33:33;;;;;;;33.25;15.23;;;17.90;69.30;;;;;;5089079;28;20023;-73
2021/06/03 17:36:01;;;;;;;22.65;11.15;;;17.80;69.20;;;;;;5090052;28;20040;-73
2021/06/03 17:38:27;;;;;;;27.65;11.02;;;17.80;69.30;;;;;;5084215;28;20020;-76
2021/06/03 17:40:56;;;;;;;24.77;11.95;;;17.80;69.40;;;;;;5088826;28;20023;-74
2021/06/03 17:43:24;;;;;;;23.90;12.65;;;17.80;69.40;;;;;;5090976;28;20492;-72
2021/06/03 17:45:51;;;;;;;25.33;13.32;;;17.80;69.50;;;;;;5092749;28;20020;-71
2021/06/03 17:48:19;;;;;;;21.10;11.32;;;17.70;69.50;;;;;;5087940;28;20107;-77